Aqualoyalty — A8ZC6 — position and weather

sailwx.info

Track history (hours):
 
Tides and Currents Weather Stations Pressure Air Temp Water Temp Dewpoint Dewpoint Depression Visibility Wind Speed Wind Dir Waves Ship Positions

Aqualoyalty

Last reported at 2015-Mar-10 19:03 UTC. Time now 2015-Mar-28 18:50 UTC.
Position N 26°20' W 114°45'.
Warning: this ship's position is 17 days out of date.

Length 249 m; draft 8 m.

Type: Ship. MMSI: 636015177.

Date/timePositionNaut miles runAvg speedWind from/ knotsBaromVisibWave heightAir tempDewpointWater temp
2015-Mar-10 19:03N 26°20' W 114°45'5614.9
2015-Mar-10 15:19N 27°04' W 115°23'1215.0
2015-Mar-10 14:33N 27°13' W 115°30'7614.8
2015-Mar-10 09:22N 28°18' W 116°16'12115.1
2015-Mar-10 01:20N 30°14' W 116°58'7815.2
2015-Mar-09 20:10N 31°29' W 117°25'1315.0
2015-Mar-09 19:18N 31°42' W 117°29'1314.7
2015-Mar-09 18:24N 31°54' W 117°34'1214.7
2015-Mar-09 17:33N 32°06' W 117°38'1514.4
2015-Mar-09 16:30N 32°20' W 117°43'1212.9
2015-Mar-09 15:33N 32°32' W 117°47'1110.9
2015-Mar-09 14:34N 32°42' W 117°52'1111.2
2015-Mar-09 13:33N 32°53' W 117°56'1110.9
2015-Mar-09 12:33N 33°03' W 117°60'1111.0
2015-Mar-09 11:34N 33°14' W 118°04'1111.2
2015-Mar-09 10:33N 33°24' W 118°09'1111.1
2015-Mar-09 09:34N 33°35' W 118°13'9 9.1
2015-Mar-09 08:33N 33°44' W 118°12'1 0.9
2015-Mar-09 07:32N 33°44' W 118°13'0 0.0
2015-Mar-09 06:32N 33°44' W 118°13'0 0.0
2015-Mar-09 05:29N 33°44' W 118°13'0 0.0
2015-Mar-09 04:32N 33°44' W 118°13'0 0.0
2015-Mar-09 03:32N 33°44' W 118°13'0 0.0
2015-Mar-09 02:32N 33°44' W 118°13'0 0.0
2015-Mar-09 01:32N 33°44' W 118°13'0 0.1
2015-Mar-09 00:32N 33°44' W 118°13'0 0.2
2015-Mar-08 23:33N 33°44' W 118°13'5 4.8
2015-Mar-08 22:34N 33°40' W 118°11'5 4.5
2015-Mar-08 21:34N 33°36' W 118°14'7 7.0
2015-Mar-08 20:34N 33°37' W 118°23'1111.2
2015-Mar-08 19:34N 33°43' W 118°34'3 2.8
2015-Mar-08 18:34N 33°45' W 118°35'1110.6
2015-Mar-08 17:34N 33°54' W 118°28'1 0.7
2015-Mar-08 16:33N 33°54' W 118°27'0 0.0
2015-Mar-08 15:18N 33°54' W 118°27'0 0.0
2015-Mar-08 14:21N 33°54' W 118°27'0 0.0
2015-Mar-08 13:33N 33°54' W 118°27'0 0.0
2015-Mar-08 12:30N 33°54' W 118°27'0 0.0
2015-Mar-08 11:33N 33°54' W 118°27'0 0.0
2015-Mar-08 10:33N 33°54' W 118°27'0 0.0
2015-Mar-08 09:33N 33°54' W 118°27'0 0.0
2015-Mar-08 08:33N 33°54' W 118°27'0 0.0
2015-Mar-08 07:33N 33°54' W 118°27'0 0.0
2015-Mar-08 06:27N 33°54' W 118°27'0 0.0
2015-Mar-08 05:27N 33°54' W 118°27'0 0.0
2015-Mar-08 04:27N 33°54' W 118°27'0 0.0
2015-Mar-08 03:33N 33°54' W 118°27'0 0.0
2015-Mar-08 02:33N 33°54' W 118°27'0 0.0
2015-Mar-08 01:33N 33°54' W 118°27'0 0.0
2015-Mar-08 00:18N 33°54' W 118°27'0 0.0
2015-Mar-07 23:30N 33°54' W 118°27'0 0.0
2015-Mar-07 22:33N 33°54' W 118°27'0 0.0
2015-Mar-07 21:27N 33°54' W 118°27'0 0.0
2015-Mar-07 20:33N 33°54' W 118°27'0 0.0
2015-Mar-07 19:33N 33°54' W 118°27'0 0.0
2015-Mar-07 17:24N 33°54' W 118°27'0 0.0
2015-Mar-07 16:27N 33°54' W 118°27'0 0.0
2015-Mar-07 15:15N 33°54' W 118°27'0 0.0
2015-Mar-07 13:30N 33°54' W 118°27'0 0.0
2015-Mar-07 12:33N 33°54' W 118°27'0 0.0
2015-Mar-07 11:27N 33°54' W 118°27'0 0.0
2015-Mar-07 09:33N 33°54' W 118°27'0 0.0
2015-Mar-07 08:33N 33°54' W 118°27'0 0.0
2015-Mar-07 07:12N 33°54' W 118°27'0 0.0
2015-Mar-07 06:33N 33°54' W 118°27'0 0.0
2015-Mar-07 05:27N 33°54' W 118°27'0 0.0
2015-Mar-07 04:30N 33°54' W 118°27'0 0.0
2015-Mar-07 03:33N 33°54' W 118°27'0 0.0
2015-Mar-07 02:33N 33°54' W 118°27'0 0.0
2015-Mar-07 01:30N 33°54' W 118°27'0 0.0
2015-Mar-07 00:30N 33°54' W 118°27'0 0.0
2015-Mar-06 23:33N 33°54' W 118°27'0 0.0
2015-Mar-06 22:33N 33°54' W 118°27'1 1.2
2015-Mar-06 21:33N 33°53' W 118°28'1 1.2
2015-Mar-06 20:33N 33°54' W 118°29'0 0.5
2015-Mar-06 19:33N 33°53' W 118°29'1 1.3
2015-Mar-06 18:33N 33°54' W 118°28'1 0.9
2015-Mar-06 17:33N 33°54' W 118°27'0 0.3
2015-Mar-06 16:33N 33°54' W 118°27'2 2.0
2015-Mar-06 15:33N 33°53' W 118°30'1 0.9
2015-Mar-06 14:33N 33°54' W 118°30'1 0.6
2015-Mar-06 13:32N 33°55' W 118°30'0 0.1
2015-Mar-06 12:32N 33°55' W 118°29'0 0.0
2015-Mar-06 11:32N 33°55' W 118°29'0 0.0
2015-Mar-06 10:32N 33°55' W 118°29'0 0.1
2015-Mar-06 09:32N 33°55' W 118°30'0 0.0
2015-Mar-06 08:32N 33°55' W 118°30'0 0.0
2015-Mar-06 07:32N 33°55' W 118°30'0 0.0
2015-Mar-06 06:32N 33°55' W 118°30'0 0.0
2015-Mar-06 05:32N 33°55' W 118°30'0 0.0
2015-Mar-06 04:32N 33°55' W 118°30'0 0.0
2015-Mar-06 03:32N 33°55' W 118°30'0 0.0
2015-Mar-06 02:32N 33°55' W 118°30'0 0.0
2015-Mar-06 01:32N 33°55' W 118°30'0 0.0
2015-Mar-06 00:32N 33°54' W 118°30'3 2.8
2015-Mar-05 23:33N 33°52' W 118°30'21 7.1
2015-Mar-05 20:33N 33°39' W 118°10'2 2.0
2015-Mar-05 19:23N 33°41' W 118°08'0 0.0
2015-Mar-05 18:29N 33°41' W 118°08'0 0.0
2015-Mar-05 17:32N 33°41' W 118°08'0 0.0
2015-Mar-05 16:32N 33°41' W 118°08'0 0.0
2015-Mar-05 15:32N 33°41' W 118°08'0 0.0
2015-Mar-05 14:32N 33°41' W 118°08'0 0.0
2015-Mar-05 13:32N 33°41' W 118°08'0 0.0
2015-Mar-05 12:32N 33°41' W 118°08'0 0.1
2015-Mar-05 11:32N 33°41' W 118°08'0 0.0
2015-Mar-05 10:32N 33°41' W 118°08'0 0.1
2015-Mar-05 09:32N 33°41' W 118°08'0 0.0
2015-Mar-05 08:32N 33°41' W 118°08'0 0.0
2015-Mar-05 07:26N 33°41' W 118°08'0 0.0
2015-Mar-05 06:32N 33°41' W 118°08'0 0.1
2015-Mar-05 05:32N 33°41' W 118°08'0 0.1
2015-Mar-05 04:20N 33°41' W 118°08'0 0.0
2015-Mar-05 03:32N 33°41' W 118°08'0 0.0
2015-Mar-05 02:32N 33°41' W 118°08'0 0.0
2015-Mar-05 01:32N 33°41' W 118°08'0 0.0
2015-Mar-05 00:32N 33°41' W 118°08'0 0.0
2015-Mar-04 23:32N 33°41' W 118°08'0 0.0
2015-Mar-04 22:32N 33°41' W 118°08'0 0.0
2015-Mar-04 21:32N 33°41' W 118°08'0 0.1
2015-Mar-04 20:32N 33°41' W 118°08'0 0.2
2015-Mar-04 19:29N 33°41' W 118°08'0 0.1
2015-Mar-04 18:32N 33°41' W 118°08'0 0.1
2015-Mar-04 17:32N 33°41' W 118°08'0 0.1
2015-Mar-04 16:32N 33°41' W 118°08'0 0.0
2015-Mar-04 15:32N 33°41' W 118°08'0 0.0
2015-Mar-04 14:32N 33°41' W 118°08'0 0.1
2015-Mar-04 13:29N 33°41' W 118°08'0 0.0
2015-Mar-04 12:26N 33°41' W 118°08'0 0.0
2015-Mar-04 11:14N 33°41' W 118°08'0 0.0
2015-Mar-04 10:26N 33°41' W 118°08'0 0.1
2015-Mar-04 09:32N 33°41' W 118°08'0 0.0
2015-Mar-04 08:28N 33°41' W 118°08'7 3.4
2015-Mar-04 06:31N 33°34' W 118°09'1111.5
2015-Mar-04 05:32N 33°24' W 118°05'1111.5
2015-Mar-04 04:33N 33°13' W 118°02'1212.0
2015-Mar-04 03:33N 33°01' W 118°02'1211.5
2015-Mar-04 02:33N 32°49' W 118°00'1211.6
2015-Mar-04 01:33N 32°39' W 117°53'1211.9
2015-Mar-04 00:33N 32°28' W 117°50'8 8.1
2015-Mar-03 23:33N 32°20' W 117°48'6 6.4
2015-Mar-03 22:33N 32°14' W 117°45'1311.7
2015-Mar-03 21:27N 32°01' W 117°42'  
Track history (hours):
 
Tides and Currents Weather Stations Pressure Air Temp Water Temp Dewpoint Dewpoint Depression Visibility Wind Speed Wind Dir Waves Ship Positions

Aqualoyalty

Last reported at 2015-Mar-10 19:03 UTC. Time now 2015-Mar-28 18:50 UTC.
Position N 26°20' W 114°45'.
Warning: this ship's position is 17 days out of date.

Length 249 m; draft 8 m.

Type: Ship. MMSI: 636015177.

Date/timePositionNaut miles runAvg speedWind from/ knotsBaromVisibWave heightAir tempDewpointWater temp
2015-Mar-10 19:03N 26°20' W 114°45'5614.9
2015-Mar-10 15:19N 27°04' W 115°23'1215.0
2015-Mar-10 14:33N 27°13' W 115°30'7614.8
2015-Mar-10 09:22N 28°18' W 116°16'12115.1
2015-Mar-10 01:20N 30°14' W 116°58'7815.2
2015-Mar-09 20:10N 31°29' W 117°25'1315.0
2015-Mar-09 19:18N 31°42' W 117°29'1314.7
2015-Mar-09 18:24N 31°54' W 117°34'1214.7
2015-Mar-09 17:33N 32°06' W 117°38'1514.4
2015-Mar-09 16:30N 32°20' W 117°43'1212.9
2015-Mar-09 15:33N 32°32' W 117°47'1110.9
2015-Mar-09 14:34N 32°42' W 117°52'1111.2
2015-Mar-09 13:33N 32°53' W 117°56'1110.9
2015-Mar-09 12:33N 33°03' W 117°60'1111.0
2015-Mar-09 11:34N 33°14' W 118°04'1111.2
2015-Mar-09 10:33N 33°24' W 118°09'1111.1
2015-Mar-09 09:34N 33°35' W 118°13'9 9.1
2015-Mar-09 08:33N 33°44' W 118°12'1 0.9
2015-Mar-09 07:32N 33°44' W 118°13'0 0.0
2015-Mar-09 06:32N 33°44' W 118°13'0 0.0
2015-Mar-09 05:29N 33°44' W 118°13'0 0.0
2015-Mar-09 04:32N 33°44' W 118°13'0 0.0
2015-Mar-09 03:32N 33°44' W 118°13'0 0.0
2015-Mar-09 02:32N 33°44' W 118°13'0 0.0
2015-Mar-09 01:32N 33°44' W 118°13'0 0.1
2015-Mar-09 00:32N 33°44' W 118°13'0 0.2
2015-Mar-08 23:33N 33°44' W 118°13'5 4.8
2015-Mar-08 22:34N 33°40' W 118°11'5 4.5
2015-Mar-08 21:34N 33°36' W 118°14'7 7.0
2015-Mar-08 20:34N 33°37' W 118°23'1111.2
2015-Mar-08 19:34N 33°43' W 118°34'3 2.8
2015-Mar-08 18:34N 33°45' W 118°35'1110.6
2015-Mar-08 17:34N 33°54' W 118°28'1 0.7
2015-Mar-08 16:33N 33°54' W 118°27'0 0.0
2015-Mar-08 15:18N 33°54' W 118°27'0 0.0
2015-Mar-08 14:21N 33°54' W 118°27'0 0.0
2015-Mar-08 13:33N 33°54' W 118°27'0 0.0
2015-Mar-08 12:30N 33°54' W 118°27'0 0.0
2015-Mar-08 11:33N 33°54' W 118°27'0 0.0
2015-Mar-08 10:33N 33°54' W 118°27'0 0.0
2015-Mar-08 09:33N 33°54' W 118°27'0 0.0
2015-Mar-08 08:33N 33°54' W 118°27'0 0.0
2015-Mar-08 07:33N 33°54' W 118°27'0 0.0
2015-Mar-08 06:27N 33°54' W 118°27'0 0.0
2015-Mar-08 05:27N 33°54' W 118°27'0 0.0
2015-Mar-08 04:27N 33°54' W 118°27'0 0.0
2015-Mar-08 03:33N 33°54' W 118°27'0 0.0
2015-Mar-08 02:33N 33°54' W 118°27'0 0.0
2015-Mar-08 01:33N 33°54' W 118°27'0 0.0
2015-Mar-08 00:18N 33°54' W 118°27'0 0.0
2015-Mar-07 23:30N 33°54' W 118°27'0 0.0
2015-Mar-07 22:33N 33°54' W 118°27'0 0.0
2015-Mar-07 21:27N 33°54' W 118°27'0 0.0
2015-Mar-07 20:33N 33°54' W 118°27'0 0.0
2015-Mar-07 19:33N 33°54' W 118°27'0 0.0
2015-Mar-07 17:24N 33°54' W 118°27'0 0.0
2015-Mar-07 16:27N 33°54' W 118°27'0 0.0
2015-Mar-07 15:15N 33°54' W 118°27'0 0.0
2015-Mar-07 13:30N 33°54' W 118°27'0 0.0
2015-Mar-07 12:33N 33°54' W 118°27'0 0.0
2015-Mar-07 11:27N 33°54' W 118°27'0 0.0
2015-Mar-07 09:33N 33°54' W 118°27'0 0.0
2015-Mar-07 08:33N 33°54' W 118°27'0 0.0
2015-Mar-07 07:12N 33°54' W 118°27'0 0.0
2015-Mar-07 06:33N 33°54' W 118°27'0 0.0
2015-Mar-07 05:27N 33°54' W 118°27'0 0.0
2015-Mar-07 04:30N 33°54' W 118°27'0 0.0
2015-Mar-07 03:33N 33°54' W 118°27'0 0.0
2015-Mar-07 02:33N 33°54' W 118°27'0 0.0
2015-Mar-07 01:30N 33°54' W 118°27'0 0.0
2015-Mar-07 00:30N 33°54' W 118°27'0 0.0
2015-Mar-06 23:33N 33°54' W 118°27'0 0.0
2015-Mar-06 22:33N 33°54' W 118°27'1 1.2
2015-Mar-06 21:33N 33°53' W 118°28'1 1.2
2015-Mar-06 20:33N 33°54' W 118°29'0 0.5
2015-Mar-06 19:33N 33°53' W 118°29'1 1.3
2015-Mar-06 18:33N 33°54' W 118°28'1 0.9
2015-Mar-06 17:33N 33°54' W 118°27'0 0.3
2015-Mar-06 16:33N 33°54' W 118°27'2 2.0
2015-Mar-06 15:33N 33°53' W 118°30'1 0.9
2015-Mar-06 14:33N 33°54' W 118°30'1 0.6
2015-Mar-06 13:32N 33°55' W 118°30'0 0.1
2015-Mar-06 12:32N 33°55' W 118°29'0 0.0
2015-Mar-06 11:32N 33°55' W 118°29'0 0.0
2015-Mar-06 10:32N 33°55' W 118°29'0 0.1
2015-Mar-06 09:32N 33°55' W 118°30'0 0.0
2015-Mar-06 08:32N 33°55' W 118°30'0 0.0
2015-Mar-06 07:32N 33°55' W 118°30'0 0.0
2015-Mar-06 06:32N 33°55' W 118°30'0 0.0
2015-Mar-06 05:32N 33°55' W 118°30'0 0.0
2015-Mar-06 04:32N 33°55' W 118°30'0 0.0
2015-Mar-06 03:32N 33°55' W 118°30'0 0.0
2015-Mar-06 02:32N 33°55' W 118°30'0 0.0
2015-Mar-06 01:32N 33°55' W 118°30'0 0.0
2015-Mar-06 00:32N 33°54' W 118°30'3 2.8
2015-Mar-05 23:33N 33°52' W 118°30'21 7.1
2015-Mar-05 20:33N 33°39' W 118°10'2 2.0
2015-Mar-05 19:23N 33°41' W 118°08'0 0.0
2015-Mar-05 18:29N 33°41' W 118°08'0 0.0
2015-Mar-05 17:32N 33°41' W 118°08'0 0.0
2015-Mar-05 16:32N 33°41' W 118°08'0 0.0
2015-Mar-05 15:32N 33°41' W 118°08'0 0.0
2015-Mar-05 14:32N 33°41' W 118°08'0 0.0
2015-Mar-05 13:32N 33°41' W 118°08'0 0.0
2015-Mar-05 12:32N 33°41' W 118°08'0 0.1
2015-Mar-05 11:32N 33°41' W 118°08'0 0.0
2015-Mar-05 10:32N 33°41' W 118°08'0 0.1
2015-Mar-05 09:32N 33°41' W 118°08'0 0.0
2015-Mar-05 08:32N 33°41' W 118°08'0 0.0
2015-Mar-05 07:26N 33°41' W 118°08'0 0.0
2015-Mar-05 06:32N 33°41' W 118°08'0 0.1
2015-Mar-05 05:32N 33°41' W 118°08'0 0.1
2015-Mar-05 04:20N 33°41' W 118°08'0 0.0
2015-Mar-05 03:32N 33°41' W 118°08'0 0.0
2015-Mar-05 02:32N 33°41' W 118°08'0 0.0
2015-Mar-05 01:32N 33°41' W 118°08'0 0.0
2015-Mar-05 00:32N 33°41' W 118°08'0 0.0
2015-Mar-04 23:32N 33°41' W 118°08'0 0.0
2015-Mar-04 22:32N 33°41' W 118°08'0 0.0
2015-Mar-04 21:32N 33°41' W 118°08'0 0.1
2015-Mar-04 20:32N 33°41' W 118°08'0 0.2
2015-Mar-04 19:29N 33°41' W 118°08'0 0.1
2015-Mar-04 18:32N 33°41' W 118°08'0 0.1
2015-Mar-04 17:32N 33°41' W 118°08'0 0.1
2015-Mar-04 16:32N 33°41' W 118°08'0 0.0
2015-Mar-04 15:32N 33°41' W 118°08'0 0.0
2015-Mar-04 14:32N 33°41' W 118°08'0 0.1
2015-Mar-04 13:29N 33°41' W 118°08'0 0.0
2015-Mar-04 12:26N 33°41' W 118°08'0 0.0
2015-Mar-04 11:14N 33°41' W 118°08'0 0.0
2015-Mar-04 10:26N 33°41' W 118°08'0 0.1
2015-Mar-04 09:32N 33°41' W 118°08'0 0.0
2015-Mar-04 08:28N 33°41' W 118°08'7 3.4
2015-Mar-04 06:31N 33°34' W 118°09'1111.5
2015-Mar-04 05:32N 33°24' W 118°05'1111.5
2015-Mar-04 04:33N 33°13' W 118°02'1212.0
2015-Mar-04 03:33N 33°01' W 118°02'1211.5
2015-Mar-04 02:33N 32°49' W 118°00'1211.6
2015-Mar-04 01:33N 32°39' W 117°53'1211.9
2015-Mar-04 00:33N 32°28' W 117°50'8 8.1
2015-Mar-03 23:33N 32°20' W 117°48'6 6.4
2015-Mar-03 22:33N 32°14' W 117°45'1311.7
2015-Mar-03 21:27N 32°01' W 117°42'  

Dump ship's entire track history